sensor_id;sensor_type;location;lat;lon;timestamp;temperature;humidity
9151;DHT22;4610;50.006;7.490;2023-04-25T00:02:07;7.40;99.90
9151;DHT22;4610;50.006;7.490;2023-04-25T00:04:34;7.40;99.90
9151;DHT22;4610;50.006;7.490;2023-04-25T00:07:04;7.40;99.90
9151;DHT22;4610;50.006;7.490;2023-04-25T00:09:31;7.40;99.90
9151;DHT22;4610;50.006;7.490;2023-04-25T00:11:58;7.50;99.90
9151;DHT22;4610;50.006;7.490;2023-04-25T00:14:26;7.50;99.90
9151;DHT22;4610;50.006;7.490;2023-04-25T00:16:54;7.40;99.90
9151;DHT22;4610;50.006;7.490;2023-04-25T00:19:21;7.30;99.90
9151;DHT22;4610;50.006;7.490;2023-04-25T00:21:48;7.30;99.90
9151;DHT22;4610;50.006;7.490;2023-04-25T00:24:16;7.30;99.90
9151;DHT22;4610;50.006;7.490;2023-04-25T00:26:43;7.30;99.90
9151;DHT22;4610;50.006;7.490;2023-04-25T00:29:10;7.30;99.90
9151;DHT22;4610;50.006;7.490;2023-04-25T00:31:37;7.10;99.90
9151;DHT22;4610;50.006;7.490;2023-04-25T00:34:03;7.00;99.90
9151;DHT22;4610;50.006;7.490;2023-04-25T00:36:30;7.00;99.90
9151;DHT22;4610;50.006;7.490;2023-04-25T00:38:57;7.00;99.90
9151;DHT22;4610;50.006;7.490;2023-04-25T00:41:26;7.00;99.90
9151;DHT22;4610;50.006;7.490;2023-04-25T00:43:54;7.00;99.90
9151;DHT22;4610;50.006;7.490;2023-04-25T00:46:21;7.00;99.90
9151;DHT22;4610;50.006;7.490;2023-04-25T00:48:47;6.90;99.90
9151;DHT22;4610;50.006;7.490;2023-04-25T00:51:18;6.90;99.90
9151;DHT22;4610;50.006;7.490;2023-04-25T00:53:46;6.90;99.90
9151;DHT22;4610;50.006;7.490;2023-04-25T00:56:13;6.90;99.90
9151;DHT22;4610;50.006;7.490;2023-04-25T00:58:42;6.90;99.90
9151;DHT22;4610;50.006;7.490;2023-04-25T01:01:09;6.90;99.90
9151;DHT22;4610;50.006;7.490;2023-04-25T01:03:38;6.90;99.90
9151;DHT22;4610;50.006;7.490;2023-04-25T01:06:07;6.90;99.90
9151;DHT22;4610;50.006;7.490;2023-04-25T01:08:35;6.80;99.90
9151;DHT22;4610;50.006;7.490;2023-04-25T01:11:02;6.80;99.90
9151;DHT22;4610;50.006;7.490;2023-04-25T01:13:29;6.60;99.90
9151;DHT22;4610;50.006;7.490;2023-04-25T01:18:26;6.30;99.90
9151;DHT22;4610;50.006;7.490;2023-04-25T01:20:53;6.10;99.90
9151;DHT22;4610;50.006;7.490;2023-04-25T01:23:23;6.00;99.90
9151;DHT22;4610;50.006;7.490;2023-04-25T01:25:50;5.90;99.90
9151;DHT22;4610;50.006;7.490;2023-04-25T01:28:17;6.00;99.90
9151;DHT22;4610;50.006;7.490;2023-04-25T01:30:44;6.00;99.90
9151;DHT22;4610;50.006;7.490;2023-04-25T01:33:13;5.90;99.90
9151;DHT22;4610;50.006;7.490;2023-04-25T01:35:40;5.90;99.90
9151;DHT22;4610;50.006;7.490;2023-04-25T01:38:07;5.90;99.90
9151;DHT22;4610;50.006;7.490;2023-04-25T01:40:39;6.00;99.90
9151;DHT22;4610;50.006;7.490;2023-04-25T01:43:06;6.00;99.90
9151;DHT22;4610;50.006;7.490;2023-04-25T01:45:36;6.00;99.90
9151;DHT22;4610;50.006;7.490;2023-04-25T01:48:05;6.00;99.90
9151;DHT22;4610;50.006;7.490;2023-04-25T01:50:32;6.00;99.90
9151;DHT22;4610;50.006;7.490;2023-04-25T01:52:59;6.10;99.90
9151;DHT22;4610;50.006;7.490;2023-04-25T01:55:27;6.20;99.90
9151;DHT22;4610;50.006;7.490;2023-04-25T01:57:55;6.10;99.90
9151;DHT22;4610;50.006;7.490;2023-04-25T02:00:22;6.10;99.90
9151;DHT22;4610;50.006;7.490;2023-04-25T02:02:49;5.90;99.90
9151;DHT22;4610;50.006;7.490;2023-04-25T02:05:18;5.80;99.90
9151;DHT22;4610;50.006;7.490;2023-04-25T02:07:47;5.70;99.90
9151;DHT22;4610;50.006;7.490;2023-04-25T02:10:14;5.60;99.90
9151;DHT22;4610;50.006;7.490;2023-04-25T02:12:41;5.50;99.90
9151;DHT22;4610;50.006;7.490;2023-04-25T02:15:10;5.40;99.90
9151;DHT22;4610;50.006;7.490;2023-04-25T02:17:37;5.40;99.90
9151;DHT22;4610;50.006;7.490;2023-04-25T02:20:05;5.30;99.90
9151;DHT22;4610;50.006;7.490;2023-04-25T02:22:32;5.30;99.90
9151;DHT22;4610;50.006;7.490;2023-04-25T02:24:59;5.30;99.90
9151;DHT22;4610;50.006;7.490;2023-04-25T02:27:26;5.30;99.90
9151;DHT22;4610;50.006;7.490;2023-04-25T02:29:53;5.30;99.90
9151;DHT22;4610;50.006;7.490;2023-04-25T02:32:21;5.40;99.90
9151;DHT22;4610;50.006;7.490;2023-04-25T02:34:47;5.40;99.90
9151;DHT22;4610;50.006;7.490;2023-04-25T02:37:14;5.40;99.90
9151;DHT22;4610;50.006;7.490;2023-04-25T02:39:41;5.30;99.90
9151;DHT22;4610;50.006;7.490;2023-04-25T02:42:08;5.30;99.90
9151;DHT22;4610;50.006;7.490;2023-04-25T02:44:34;5.30;99.90
9151;DHT22;4610;50.006;7.490;2023-04-25T02:47:01;5.30;99.90
9151;DHT22;4610;50.006;7.490;2023-04-25T02:49:29;5.40;99.90
9151;DHT22;4610;50.006;7.490;2023-04-25T02:51:56;5.50;99.90
9151;DHT22;4610;50.006;7.490;2023-04-25T02:54:23;5.50;99.90
9151;DHT22;4610;50.006;7.490;2023-04-25T02:56:49;5.50;99.90
9151;DHT22;4610;50.006;7.490;2023-04-25T02:59:16;5.50;99.90
9151;DHT22;4610;50.006;7.490;2023-04-25T03:01:43;5.50;99.90
9151;DHT22;4610;50.006;7.490;2023-04-25T03:04:10;5.40;99.90
9151;DHT22;4610;50.006;7.490;2023-04-25T03:06:38;5.30;99.90
9151;DHT22;4610;50.006;7.490;2023-04-25T03:09:05;5.30;99.90
9151;DHT22;4610;50.006;7.490;2023-04-25T03:11:32;5.10;99.90
9151;DHT22;4610;50.006;7.490;2023-04-25T03:13:59;5.10;99.90
9151;DHT22;4610;50.006;7.490;2023-04-25T03:16:26;5.00;99.90
9151;DHT22;4610;50.006;7.490;2023-04-25T03:18:52;5.00;99.90
9151;DHT22;4610;50.006;7.490;2023-04-25T03:21:19;4.90;99.90
9151;DHT22;4610;50.006;7.490;2023-04-25T03:23:47;4.90;99.90
9151;DHT22;4610;50.006;7.490;2023-04-25T03:26:14;4.90;99.90
9151;DHT22;4610;50.006;7.490;2023-04-25T03:28:41;4.90;99.90
9151;DHT22;4610;50.006;7.490;2023-04-25T03:31:08;4.80;99.90
9151;DHT22;4610;50.006;7.490;2023-04-25T03:33:34;4.80;99.90
9151;DHT22;4610;50.006;7.490;2023-04-25T03:36:01;4.70;99.90
9151;DHT22;4610;50.006;7.490;2023-04-25T03:38:28;4.50;99.90
9151;DHT22;4610;50.006;7.490;2023-04-25T03:40:56;4.50;99.90
9151;DHT22;4610;50.006;7.490;2023-04-25T03:43:23;4.40;99.90
9151;DHT22;4610;50.006;7.490;2023-04-25T03:45:50;4.40;99.90
9151;DHT22;4610;50.006;7.490;2023-04-25T03:48:17;4.40;99.90
9151;DHT22;4610;50.006;7.490;2023-04-25T03:50:46;4.40;99.90
9151;DHT22;4610;50.006;7.490;2023-04-25T03:53:13;4.40;99.90
9151;DHT22;4610;50.006;7.490;2023-04-25T03:55:40;4.40;99.90
9151;DHT22;4610;50.006;7.490;2023-04-25T03:58:08;4.50;99.90
9151;DHT22;4610;50.006;7.490;2023-04-25T04:00:35;4.60;99.90
9151;DHT22;4610;50.006;7.490;2023-04-25T04:03:02;4.60;99.90
9151;DHT22;4610;50.006;7.490;2023-04-25T04:05:29;4.60;99.90
9151;DHT22;4610;50.006;7.490;2023-04-25T04:07:56;4.60;99.90
9151;DHT22;4610;50.006;7.490;2023-04-25T04:10:23;4.50;99.90
9151;DHT22;4610;50.006;7.490;2023-04-25T04:12:51;4.50;99.90
9151;DHT22;4610;50.006;7.490;2023-04-25T04:15:19;4.50;99.90
9151;DHT22;4610;50.006;7.490;2023-04-25T04:17:47;4.50;99.90
9151;DHT22;4610;50.006;7.490;2023-04-25T04:20:14;4.60;99.90
9151;DHT22;4610;50.006;7.490;2023-04-25T04:22:41;4.70;99.90
9151;DHT22;4610;50.006;7.490;2023-04-25T04:25:08;4.80;99.90
9151;DHT22;4610;50.006;7.490;2023-04-25T04:27:37;4.90;99.90
9151;DHT22;4610;50.006;7.490;2023-04-25T04:30:05;4.90;99.90
9151;DHT22;4610;50.006;7.490;2023-04-25T04:32:34;5.00;99.90
9151;DHT22;4610;50.006;7.490;2023-04-25T04:35:03;5.20;99.90
9151;DHT22;4610;50.006;7.490;2023-04-25T04:37:31;5.40;99.90
9151;DHT22;4610;50.006;7.490;2023-04-25T04:39:58;5.60;99.90
9151;DHT22;4610;50.006;7.490;2023-04-25T04:42:26;5.70;99.90
9151;DHT22;4610;50.006;7.490;2023-04-25T04:44:53;5.80;99.90
9151;DHT22;4610;50.006;7.490;2023-04-25T04:47:20;5.80;99.90
9151;DHT22;4610;50.006;7.490;2023-04-25T04:49:50;5.80;99.90
9151;DHT22;4610;50.006;7.490;2023-04-25T04:52:17;5.80;99.90
9151;DHT22;4610;50.006;7.490;2023-04-25T04:54:43;5.80;99.90
9151;DHT22;4610;50.006;7.490;2023-04-25T04:57:11;5.80;99.90
9151;DHT22;4610;50.006;7.490;2023-04-25T04:59:37;5.90;99.90
9151;DHT22;4610;50.006;7.490;2023-04-25T05:02:04;5.90;99.90
9151;DHT22;4610;50.006;7.490;2023-04-25T05:04:31;6.00;99.90
9151;DHT22;4610;50.006;7.490;2023-04-25T05:06:59;6.00;99.90
9151;DHT22;4610;50.006;7.490;2023-04-25T05:09:26;6.00;99.90
9151;DHT22;4610;50.006;7.490;2023-04-25T05:11:53;6.00;99.90
9151;DHT22;4610;50.006;7.490;2023-04-25T05:14:20;6.00;99.90
9151;DHT22;4610;50.006;7.490;2023-04-25T05:16:47;6.20;99.90
9151;DHT22;4610;50.006;7.490;2023-04-25T05:19:14;6.20;99.90
9151;DHT22;4610;50.006;7.490;2023-04-25T05:21:40;6.30;99.90
9151;DHT22;4610;50.006;7.490;2023-04-25T05:24:09;6.30;99.90
9151;DHT22;4610;50.006;7.490;2023-04-25T05:26:37;6.40;99.90
9151;DHT22;4610;50.006;7.490;2023-04-25T05:29:04;6.40;99.90
9151;DHT22;4610;50.006;7.490;2023-04-25T05:31:30;6.50;99.90
9151;DHT22;4610;50.006;7.490;2023-04-25T05:33:57;6.50;99.90
9151;DHT22;4610;50.006;7.490;2023-04-25T05:36:24;6.50;99.90
9151;DHT22;4610;50.006;7.490;2023-04-25T05:38:51;6.60;99.90
9151;DHT22;4610;50.006;7.490;2023-04-25T05:41:19;6.70;99.90
9151;DHT22;4610;50.006;7.490;2023-04-25T05:43:46;7.50;99.90
9151;DHT22;4610;50.006;7.490;2023-04-25T05:46:15;7.90;99.90
9151;DHT22;4610;50.006;7.490;2023-04-25T05:48:42;8.20;99.90
9151;DHT22;4610;50.006;7.490;2023-04-25T05:51:09;8.20;99.90
9151;DHT22;4610;50.006;7.490;2023-04-25T05:53:36;8.00;99.90
9151;DHT22;4610;50.006;7.490;2023-04-25T05:56:03;7.80;99.90
9151;DHT22;4610;50.006;7.490;2023-04-25T05:58:31;7.60;99.90
9151;DHT22;4610;50.006;7.490;2023-04-25T06:00:58;7.30;99.90
9151;DHT22;4610;50.006;7.490;2023-04-25T06:03:25;7.10;99.90
9151;DHT22;4610;50.006;7.490;2023-04-25T06:05:52;6.90;99.90
9151;DHT22;4610;50.006;7.490;2023-04-25T06:08:18;6.80;99.90
9151;DHT22;4610;50.006;7.490;2023-04-25T06:10:45;7.80;99.90
9151;DHT22;4610;50.006;7.490;2023-04-25T06:13:12;7.50;99.90
9151;DHT22;4610;50.006;7.490;2023-04-25T06:15:40;8.00;99.90
9151;DHT22;4610;50.006;7.490;2023-04-25T06:18:07;7.80;99.90
9151;DHT22;4610;50.006;7.490;2023-04-25T06:20:34;7.50;99.90
9151;DHT22;4610;50.006;7.490;2023-04-25T06:23:01;7.30;99.90
9151;DHT22;4610;50.006;7.490;2023-04-25T06:25:28;7.00;99.90
9151;DHT22;4610;50.006;7.490;2023-04-25T06:27:54;6.90;99.90
9151;DHT22;4610;50.006;7.490;2023-04-25T06:30:21;6.80;99.90
9151;DHT22;4610;50.006;7.490;2023-04-25T06:32:52;6.80;99.90
9151;DHT22;4610;50.006;7.490;2023-04-25T06:35:19;6.70;99.90
9151;DHT22;4610;50.006;7.490;2023-04-25T06:37:46;6.70;99.90
9151;DHT22;4610;50.006;7.490;2023-04-25T06:40:13;6.80;99.90
9151;DHT22;4610;50.006;7.490;2023-04-25T06:42:40;6.90;99.90
9151;DHT22;4610;50.006;7.490;2023-04-25T06:45:08;7.10;99.90
9151;DHT22;4610;50.006;7.490;2023-04-25T06:47:35;7.10;99.90
9151;DHT22;4610;50.006;7.490;2023-04-25T06:50:03;7.00;99.90
9151;DHT22;4610;50.006;7.490;2023-04-25T06:52:31;6.90;99.90
9151;DHT22;4610;50.006;7.490;2023-04-25T06:54:58;6.90;99.90
9151;DHT22;4610;50.006;7.490;2023-04-25T06:57:24;6.90;99.90
9151;DHT22;4610;50.006;7.490;2023-04-25T06:59:51;6.90;99.90
9151;DHT22;4610;50.006;7.490;2023-04-25T07:02:18;7.00;99.90
9151;DHT22;4610;50.006;7.490;2023-04-25T07:04:46;7.00;99.90
9151;DHT22;4610;50.006;7.490;2023-04-25T07:07:14;7.20;99.90
9151;DHT22;4610;50.006;7.490;2023-04-25T07:09:42;7.20;99.90
9151;DHT22;4610;50.006;7.490;2023-04-25T07:12:09;7.20;99.90
9151;DHT22;4610;50.006;7.490;2023-04-25T07:14:36;7.30;99.90
9151;DHT22;4610;50.006;7.490;2023-04-25T07:17:03;7.30;99.90
9151;DHT22;4610;50.006;7.490;2023-04-25T07:19:32;7.50;99.90
9151;DHT22;4610;50.006;7.490;2023-04-25T07:21:58;7.50;99.90
9151;DHT22;4610;50.006;7.490;2023-04-25T07:24:27;7.50;99.90
9151;DHT22;4610;50.006;7.490;2023-04-25T07:26:54;7.50;99.90
9151;DHT22;4610;50.006;7.490;2023-04-25T07:29:20;7.50;99.90
9151;DHT22;4610;50.006;7.490;2023-04-25T07:31:47;7.60;99.90
9151;DHT22;4610;50.006;7.490;2023-04-25T07:34:14;7.60;99.90
9151;DHT22;4610;50.006;7.490;2023-04-25T07:36:41;7.60;99.90
9151;DHT22;4610;50.006;7.490;2023-04-25T07:39:07;7.20;99.90
9151;DHT22;4610;50.006;7.490;2023-04-25T07:41:36;7.10;99.90
9151;DHT22;4610;50.006;7.490;2023-04-25T07:44:03;7.20;99.90
9151;DHT22;4610;50.006;7.490;2023-04-25T07:46:29;7.10;99.90
9151;DHT22;4610;50.006;7.490;2023-04-25T07:48:56;7.10;99.90
9151;DHT22;4610;50.006;7.490;2023-04-25T07:51:23;7.20;99.90
9151;DHT22;4610;50.006;7.490;2023-04-25T07:53:50;7.20;99.90
9151;DHT22;4610;50.006;7.490;2023-04-25T07:56:16;7.20;99.90
9151;DHT22;4610;50.006;7.490;2023-04-25T07:58:45;7.00;99.90
9151;DHT22;4610;50.006;7.490;2023-04-25T08:01:11;7.00;99.90
9151;DHT22;4610;50.006;7.490;2023-04-25T08:03:38;7.10;99.90
9151;DHT22;4610;50.006;7.490;2023-04-25T08:06:05;7.00;99.90
9151;DHT22;4610;50.006;7.490;2023-04-25T08:08:32;6.90;99.90
9151;DHT22;4610;50.006;7.490;2023-04-25T08:10:59;6.90;99.90
9151;DHT22;4610;50.006;7.490;2023-04-25T08:13:26;6.70;99.90
9151;DHT22;4610;50.006;7.490;2023-04-25T08:15:54;6.70;99.90
9151;DHT22;4610;50.006;7.490;2023-04-25T08:18:21;6.80;99.90
9151;DHT22;4610;50.006;7.490;2023-04-25T08:20:47;6.90;99.90
9151;DHT22;4610;50.006;7.490;2023-04-25T08:23:14;6.90;99.90
9151;DHT22;4610;50.006;7.490;2023-04-25T08:25:41;6.90;99.90
9151;DHT22;4610;50.006;7.490;2023-04-25T08:28:08;7.00;99.90
9151;DHT22;4610;50.006;7.490;2023-04-25T08:30:36;6.90;99.90
9151;DHT22;4610;50.006;7.490;2023-04-25T08:33:04;7.00;99.90
9151;DHT22;4610;50.006;7.490;2023-04-25T08:35:31;6.90;99.90
9151;DHT22;4610;50.006;7.490;2023-04-25T08:37:59;7.00;99.90
9151;DHT22;4610;50.006;7.490;2023-04-25T08:40:27;7.10;99.90
9151;DHT22;4610;50.006;7.490;2023-04-25T08:42:56;7.30;99.90
9151;DHT22;4610;50.006;7.490;2023-04-25T08:45:25;7.50;99.90
9151;DHT22;4610;50.006;7.490;2023-04-25T08:47:54;7.70;99.90
9151;DHT22;4610;50.006;7.490;2023-04-25T08:50:24;7.70;99.90
9151;DHT22;4610;50.006;7.490;2023-04-25T08:52:53;7.90;99.90
9151;DHT22;4610;50.006;7.490;2023-04-25T08:55:21;7.90;99.90
9151;DHT22;4610;50.006;7.490;2023-04-25T08:57:49;7.90;99.90
9151;DHT22;4610;50.006;7.490;2023-04-25T09:00:17;7.90;99.90
9151;DHT22;4610;50.006;7.490;2023-04-25T09:02:45;7.90;99.90
9151;DHT22;4610;50.006;7.490;2023-04-25T09:05:13;8.10;99.90
9151;DHT22;4610;50.006;7.490;2023-04-25T09:07:41;8.10;99.90
9151;DHT22;4610;50.006;7.490;2023-04-25T09:10:09;8.00;99.90
9151;DHT22;4610;50.006;7.490;2023-04-25T09:12:36;7.90;99.90
9151;DHT22;4610;50.006;7.490;2023-04-25T09:15:05;7.90;99.90
9151;DHT22;4610;50.006;7.490;2023-04-25T09:17:32;8.10;99.90
9151;DHT22;4610;50.006;7.490;2023-04-25T09:20:07;8.50;99.90
9151;DHT22;4610;50.006;7.490;2023-04-25T09:22:35;8.70;99.90
9151;DHT22;4610;50.006;7.490;2023-04-25T09:25:07;8.80;99.90
9151;DHT22;4610;50.006;7.490;2023-04-25T09:27:34;9.40;99.90
9151;DHT22;4610;50.006;7.490;2023-04-25T09:30:02;9.70;99.90
9151;DHT22;4610;50.006;7.490;2023-04-25T09:32:30;9.90;99.90
9151;DHT22;4610;50.006;7.490;2023-04-25T09:34:57;10.20;99.90
9151;DHT22;4610;50.006;7.490;2023-04-25T09:37:25;10.30;99.90
9151;DHT22;4610;50.006;7.490;2023-04-25T09:39:54;10.30;99.90
9151;DHT22;4610;50.006;7.490;2023-04-25T09:42:24;10.30;99.90
9151;DHT22;4610;50.006;7.490;2023-04-25T09:44:53;9.90;99.90
9151;DHT22;4610;50.006;7.490;2023-04-25T09:47:20;9.50;99.90
9151;DHT22;4610;50.006;7.490;2023-04-25T09:49:49;9.10;99.90
9151;DHT22;4610;50.006;7.490;2023-04-25T09:52:17;8.90;99.90
9151;DHT22;4610;50.006;7.490;2023-04-25T09:54:44;8.90;99.90
9151;DHT22;4610;50.006;7.490;2023-04-25T09:57:13;8.90;99.90
9151;DHT22;4610;50.006;7.490;2023-04-25T09:59:43;9.00;99.90
9151;DHT22;4610;50.006;7.490;2023-04-25T10:02:11;9.20;99.90
9151;DHT22;4610;50.006;7.490;2023-04-25T10:04:38;9.40;99.90
9151;DHT22;4610;50.006;7.490;2023-04-25T10:07:06;9.40;99.90
9151;DHT22;4610;50.006;7.490;2023-04-25T10:09:36;9.40;99.90
9151;DHT22;4610;50.006;7.490;2023-04-25T10:12:03;9.40;99.90
9151;DHT22;4610;50.006;7.490;2023-04-25T10:14:31;9.30;99.90
9151;DHT22;4610;50.006;7.490;2023-04-25T10:17:00;9.50;99.90
9151;DHT22;4610;50.006;7.490;2023-04-25T10:19:28;9.80;99.90
9151;DHT22;4610;50.006;7.490;2023-04-25T10:22:00;9.60;99.90
9151;DHT22;4610;50.006;7.490;2023-04-25T10:24:29;10.10;99.90
9151;DHT22;4610;50.006;7.490;2023-04-25T10:26:56;10.50;99.90
9151;DHT22;4610;50.006;7.490;2023-04-25T10:29:24;10.40;99.90
9151;DHT22;4610;50.006;7.490;2023-04-25T10:31:52;10.50;99.90
9151;DHT22;4610;50.006;7.490;2023-04-25T10:34:24;10.40;99.90
9151;DHT22;4610;50.006;7.490;2023-04-25T10:36:52;10.20;99.90
9151;DHT22;4610;50.006;7.490;2023-04-25T10:39:25;10.20;99.90
9151;DHT22;4610;50.006;7.490;2023-04-25T10:41:55;10.30;99.90
9151;DHT22;4610;50.006;7.490;2023-04-25T10:44:23;10.30;99.90
9151;DHT22;4610;50.006;7.490;2023-04-25T10:46:52;10.00;99.90
9151;DHT22;4610;50.006;7.490;2023-04-25T10:49:33;9.80;99.90
9151;DHT22;4610;50.006;7.490;2023-04-25T10:52:24;9.60;99.90
9151;DHT22;4610;50.006;7.490;2023-04-25T10:54:54;9.00;99.90
9151;DHT22;4610;50.006;7.490;2023-04-25T10:57:31;9.00;99.90
9151;DHT22;4610;50.006;7.490;2023-04-25T11:00:10;8.90;99.90
9151;DHT22;4610;50.006;7.490;2023-04-25T11:02:41;9.00;99.90
9151;DHT22;4610;50.006;7.490;2023-04-25T11:05:10;9.20;99.90
9151;DHT22;4610;50.006;7.490;2023-04-25T11:07:49;9.60;99.90
9151;DHT22;4610;50.006;7.490;2023-04-25T11:10:16;9.70;99.90
9151;DHT22;4610;50.006;7.490;2023-04-25T11:12:44;9.90;99.90
9151;DHT22;4610;50.006;7.490;2023-04-25T11:15:11;10.00;99.90
9151;DHT22;4610;50.006;7.490;2023-04-25T11:17:39;10.00;99.90
9151;DHT22;4610;50.006;7.490;2023-04-25T11:20:07;10.20;99.90
9151;DHT22;4610;50.006;7.490;2023-04-25T11:22:38;10.30;99.90
9151;DHT22;4610;50.006;7.490;2023-04-25T11:25:08;10.30;99.90
9151;DHT22;4610;50.006;7.490;2023-04-25T11:27:38;10.60;99.90
9151;DHT22;4610;50.006;7.490;2023-04-25T11:30:13;10.50;99.90
9151;DHT22;4610;50.006;7.490;2023-04-25T11:32:41;10.50;99.90
9151;DHT22;4610;50.006;7.490;2023-04-25T11:35:08;10.50;99.90
9151;DHT22;4610;50.006;7.490;2023-04-25T11:37:35;10.30;99.90
9151;DHT22;4610;50.006;7.490;2023-04-25T11:40:05;10.40;99.90
9151;DHT22;4610;50.006;7.490;2023-04-25T11:42:35;10.70;99.90
9151;DHT22;4610;50.006;7.490;2023-04-25T11:45:04;10.60;99.90
9151;DHT22;4610;50.006;7.490;2023-04-25T11:47:31;10.60;99.90
9151;DHT22;4610;50.006;7.490;2023-04-25T11:49:58;10.70;99.90
9151;DHT22;4610;50.006;7.490;2023-04-25T11:52:36;10.80;99.90
9151;DHT22;4610;50.006;7.490;2023-04-25T11:57:33;11.50;99.90
9151;DHT22;4610;50.006;7.490;2023-04-25T12:00:08;11.50;99.90
9151;DHT22;4610;50.006;7.490;2023-04-25T12:02:36;11.30;99.90
9151;DHT22;4610;50.006;7.490;2023-04-25T12:05:06;11.20;99.90
9151;DHT22;4610;50.006;7.490;2023-04-25T12:07:33;11.20;99.90
9151;DHT22;4610;50.006;7.490;2023-04-25T12:10:06;11.50;99.90
9151;DHT22;4610;50.006;7.490;2023-04-25T12:12:34;11.80;99.90
9151;DHT22;4610;50.006;7.490;2023-04-25T12:15:12;11.70;99.90
9151;DHT22;4610;50.006;7.490;2023-04-25T12:17:41;11.80;99.90
9151;DHT22;4610;50.006;7.490;2023-04-25T12:20:09;11.70;99.90
9151;DHT22;4610;50.006;7.490;2023-04-25T12:22:36;11.60;99.90
9151;DHT22;4610;50.006;7.490;2023-04-25T12:25:05;11.40;99.90
9151;DHT22;4610;50.006;7.490;2023-04-25T12:27:33;11.20;99.90
9151;DHT22;4610;50.006;7.490;2023-04-25T12:30:01;10.90;99.90
9151;DHT22;4610;50.006;7.490;2023-04-25T12:32:28;10.80;99.90
9151;DHT22;4610;50.006;7.490;2023-04-25T12:34:56;10.80;99.90
9151;DHT22;4610;50.006;7.490;2023-04-25T12:37:23;10.80;99.90
9151;DHT22;4610;50.006;7.490;2023-04-25T12:39:50;10.90;99.90
9151;DHT22;4610;50.006;7.490;2023-04-25T12:42:18;10.90;99.90
9151;DHT22;4610;50.006;7.490;2023-04-25T12:44:45;11.10;99.90
9151;DHT22;4610;50.006;7.490;2023-04-25T12:47:12;11.10;99.90
9151;DHT22;4610;50.006;7.490;2023-04-25T12:49:39;11.20;99.90
9151;DHT22;4610;50.006;7.490;2023-04-25T12:52:06;11.10;99.90
9151;DHT22;4610;50.006;7.490;2023-04-25T12:54:32;11.30;99.90
9151;DHT22;4610;50.006;7.490;2023-04-25T12:56:59;11.30;99.90
9151;DHT22;4610;50.006;7.490;2023-04-25T12:59:29;11.20;99.90
9151;DHT22;4610;50.006;7.490;2023-04-25T13:01:56;11.30;99.90
9151;DHT22;4610;50.006;7.490;2023-04-25T13:04:23;11.60;99.90
9151;DHT22;4610;50.006;7.490;2023-04-25T13:06:49;12.10;99.90
9151;DHT22;4610;50.006;7.490;2023-04-25T13:09:16;12.30;99.90
9151;DHT22;4610;50.006;7.490;2023-04-25T13:11:43;12.10;99.90
9151;DHT22;4610;50.006;7.490;2023-04-25T13:14:11;11.80;99.90
9151;DHT22;4610;50.006;7.490;2023-04-25T13:16:39;11.30;99.90
9151;DHT22;4610;50.006;7.490;2023-04-25T13:19:06;11.10;99.90
9151;DHT22;4610;50.006;7.490;2023-04-25T13:21:36;10.90;99.90
9151;DHT22;4610;50.006;7.490;2023-04-25T13:24:03;10.80;99.90
9151;DHT22;4610;50.006;7.490;2023-04-25T13:26:30;10.80;99.90
9151;DHT22;4610;50.006;7.490;2023-04-25T13:28:57;10.90;99.90
9151;DHT22;4610;50.006;7.490;2023-04-25T13:31:25;11.00;99.90
9151;DHT22;4610;50.006;7.490;2023-04-25T13:33:54;11.00;99.90
9151;DHT22;4610;50.006;7.490;2023-04-25T13:36:20;10.90;99.90
9151;DHT22;4610;50.006;7.490;2023-04-25T13:38:47;10.80;99.90
9151;DHT22;4610;50.006;7.490;2023-04-25T13:41:14;10.80;99.90
9151;DHT22;4610;50.006;7.490;2023-04-25T13:43:44;10.80;99.90
9151;DHT22;4610;50.006;7.490;2023-04-25T13:46:12;10.80;99.90
9151;DHT22;4610;50.006;7.490;2023-04-25T13:48:40;10.70;99.90
9151;DHT22;4610;50.006;7.490;2023-04-25T13:51:13;10.90;99.90
9151;DHT22;4610;50.006;7.490;2023-04-25T13:53:42;10.80;99.90
9151;DHT22;4610;50.006;7.490;2023-04-25T13:56:09;10.80;99.90
9151;DHT22;4610;50.006;7.490;2023-04-25T13:58:37;10.60;99.90
9151;DHT22;4610;50.006;7.490;2023-04-25T14:01:03;10.70;99.90
9151;DHT22;4610;50.006;7.490;2023-04-25T14:03:31;11.40;99.90
9151;DHT22;4610;50.006;7.490;2023-04-25T14:05:57;11.30;99.90
9151;DHT22;4610;50.006;7.490;2023-04-25T14:08:26;11.10;99.90
9151;DHT22;4610;50.006;7.490;2023-04-25T14:10:52;11.00;99.90
9151;DHT22;4610;50.006;7.490;2023-04-25T14:13:19;10.80;99.90
9151;DHT22;4610;50.006;7.490;2023-04-25T14:15:46;10.90;99.90
9151;DHT22;4610;50.006;7.490;2023-04-25T14:18:12;11.00;99.90
9151;DHT22;4610;50.006;7.490;2023-04-25T14:20:39;10.80;99.90
9151;DHT22;4610;50.006;7.490;2023-04-25T14:23:06;11.10;99.90
9151;DHT22;4610;50.006;7.490;2023-04-25T14:25:34;11.30;99.90
9151;DHT22;4610;50.006;7.490;2023-04-25T14:28:02;11.30;99.90
9151;DHT22;4610;50.006;7.490;2023-04-25T14:30:29;11.50;99.90
9151;DHT22;4610;50.006;7.490;2023-04-25T14:32:56;10.70;99.90
9151;DHT22;4610;50.006;7.490;2023-04-25T14:35:22;10.50;99.90
9151;DHT22;4610;50.006;7.490;2023-04-25T14:37:49;10.10;99.90
9151;DHT22;4610;50.006;7.490;2023-04-25T14:40:16;9.80;99.90
9151;DHT22;4610;50.006;7.490;2023-04-25T14:42:44;9.90;99.90
9151;DHT22;4610;50.006;7.490;2023-04-25T14:45:11;10.00;99.90
9151;DHT22;4610;50.006;7.490;2023-04-25T14:47:39;10.10;99.90
9151;DHT22;4610;50.006;7.490;2023-04-25T14:50:07;10.20;99.90
9151;DHT22;4610;50.006;7.490;2023-04-25T14:52:34;10.10;99.90
9151;DHT22;4610;50.006;7.490;2023-04-25T14:55:00;10.10;99.90
9151;DHT22;4610;50.006;7.490;2023-04-25T14:57:30;10.20;99.90
9151;DHT22;4610;50.006;7.490;2023-04-25T14:59:58;10.20;99.90
9151;DHT22;4610;50.006;7.490;2023-04-25T15:02:25;10.20;99.90
9151;DHT22;4610;50.006;7.490;2023-04-25T15:04:52;10.30;99.90
9151;DHT22;4610;50.006;7.490;2023-04-25T15:07:19;10.30;99.90
9151;DHT22;4610;50.006;7.490;2023-04-25T15:09:47;10.40;99.90
9151;DHT22;4610;50.006;7.490;2023-04-25T15:12:14;10.50;99.90
9151;DHT22;4610;50.006;7.490;2023-04-25T15:14:41;10.60;99.90
9151;DHT22;4610;50.006;7.490;2023-04-25T15:17:09;10.30;99.90
9151;DHT22;4610;50.006;7.490;2023-04-25T15:19:38;10.20;99.90
9151;DHT22;4610;50.006;7.490;2023-04-25T15:22:05;10.10;99.90
9151;DHT22;4610;50.006;7.490;2023-04-25T15:24:32;10.50;99.90
9151;DHT22;4610;50.006;7.490;2023-04-25T15:26:59;10.20;99.90
9151;DHT22;4610;50.006;7.490;2023-04-25T15:29:26;10.20;99.90
9151;DHT22;4610;50.006;7.490;2023-04-25T15:31:54;10.00;99.90
9151;DHT22;4610;50.006;7.490;2023-04-25T15:34:22;10.00;99.90
9151;DHT22;4610;50.006;7.490;2023-04-25T15:36:49;10.00;99.90
9151;DHT22;4610;50.006;7.490;2023-04-25T15:39:15;10.10;99.90
9151;DHT22;4610;50.006;7.490;2023-04-25T15:41:43;10.10;99.90
9151;DHT22;4610;50.006;7.490;2023-04-25T15:44:09;10.10;99.90
9151;DHT22;4610;50.006;7.490;2023-04-25T15:46:37;10.10;99.90
9151;DHT22;4610;50.006;7.490;2023-04-25T15:49:03;10.00;99.90
9151;DHT22;4610;50.006;7.490;2023-04-25T15:51:31;10.00;99.90
9151;DHT22;4610;50.006;7.490;2023-04-25T15:53:59;9.90;99.90
9151;DHT22;4610;50.006;7.490;2023-04-25T15:56:26;9.80;99.90
9151;DHT22;4610;50.006;7.490;2023-04-25T15:58:53;9.70;99.90
9151;DHT22;4610;50.006;7.490;2023-04-25T16:01:20;9.70;99.90
9151;DHT22;4610;50.006;7.490;2023-04-25T16:03:49;9.70;99.90
9151;DHT22;4610;50.006;7.490;2023-04-25T16:06:16;9.70;99.90
9151;DHT22;4610;50.006;7.490;2023-04-25T16:08:44;9.60;99.90
9151;DHT22;4610;50.006;7.490;2023-04-25T16:11:11;9.60;99.90
9151;DHT22;4610;50.006;7.490;2023-04-25T16:13:39;9.70;99.90
9151;DHT22;4610;50.006;7.490;2023-04-25T16:16:06;9.70;99.90
9151;DHT22;4610;50.006;7.490;2023-04-25T16:18:33;9.50;99.90
9151;DHT22;4610;50.006;7.490;2023-04-25T16:21:00;9.50;99.90